sensor_id;sensor_type;location;lat;lon;timestamp;P1;durP1;ratioP1;P2;durP2;ratioP2
56752;SDS011;42627;42.646;23.642;2022-07-06T00:01:45;7.97;;;4.32;;
56752;SDS011;42627;42.646;23.642;2022-07-06T00:03:45;8.18;;;4.22;;
56752;SDS011;42627;42.646;23.642;2022-07-06T00:05:46;8.98;;;4.55;;
56752;SDS011;42627;42.646;23.642;2022-07-06T00:07:47;8.40;;;4.70;;
56752;SDS011;42627;42.646;23.642;2022-07-06T00:09:47;8.30;;;4.40;;
56752;SDS011;42627;42.646;23.642;2022-07-06T00:11:48;9.85;;;4.65;;
56752;SDS011;42627;42.646;23.642;2022-07-06T00:16:06;9.88;;;5.07;;
56752;SDS011;42627;42.646;23.642;2022-07-06T00:18:07;9.18;;;4.95;;
56752;SDS011;42627;42.646;23.642;2022-07-06T00:20:07;9.82;;;4.18;;
56752;SDS011;42627;42.646;23.642;2022-07-06T00:22:08;7.95;;;4.30;;
56752;SDS011;42627;42.646;23.642;2022-07-06T00:24:09;10.25;;;4.20;;
56752;SDS011;42627;42.646;23.642;2022-07-06T00:26:10;6.93;;;4.25;;
56752;SDS011;42627;42.646;23.642;2022-07-06T00:28:10;10.80;;;4.50;;
56752;SDS011;42627;42.646;23.642;2022-07-06T00:30:24;10.02;;;5.00;;
56752;SDS011;42627;42.646;23.642;2022-07-06T00:32:36;9.23;;;4.40;;
56752;SDS011;42627;42.646;23.642;2022-07-06T00:34:42;7.57;;;4.03;;
56752;SDS011;42627;42.646;23.642;2022-07-06T00:36:43;7.80;;;4.70;;
56752;SDS011;42627;42.646;23.642;2022-07-06T00:38:44;6.97;;;3.72;;
56752;SDS011;42627;42.646;23.642;2022-07-06T00:40:44;9.00;;;4.20;;
56752;SDS011;42627;42.646;23.642;2022-07-06T00:42:46;8.18;;;4.03;;
56752;SDS011;42627;42.646;23.642;2022-07-06T00:44:48;7.40;;;4.22;;
56752;SDS011;42627;42.646;23.642;2022-07-06T00:46:48;8.05;;;4.28;;
56752;SDS011;42627;42.646;23.642;2022-07-06T00:48:49;15.73;;;4.88;;
56752;SDS011;42627;42.646;23.642;2022-07-06T00:50:50;9.48;;;5.07;;
56752;SDS011;42627;42.646;23.642;2022-07-06T00:52:51;9.40;;;4.50;;
56752;SDS011;42627;42.646;23.642;2022-07-06T00:54:56;10.70;;;5.85;;
56752;SDS011;42627;42.646;23.642;2022-07-06T00:56:58;6.95;;;3.83;;
56752;SDS011;42627;42.646;23.642;2022-07-06T01:01:13;7.63;;;4.73;;
56752;SDS011;42627;42.646;23.642;2022-07-06T01:03:14;7.13;;;4.32;;
56752;SDS011;42627;42.646;23.642;2022-07-06T01:05:15;8.52;;;4.72;;
56752;SDS011;42627;42.646;23.642;2022-07-06T01:09:35;8.75;;;4.15;;
56752;SDS011;42627;42.646;23.642;2022-07-06T01:11:52;7.57;;;4.45;;
56752;SDS011;42627;42.646;23.642;2022-07-06T01:14:08;7.75;;;4.25;;
56752;SDS011;42627;42.646;23.642;2022-07-06T01:16:09;7.93;;;4.63;;
56752;SDS011;42627;42.646;23.642;2022-07-06T01:18:10;8.23;;;4.10;;
56752;SDS011;42627;42.646;23.642;2022-07-06T01:20:13;8.93;;;4.30;;
56752;SDS011;42627;42.646;23.642;2022-07-06T01:22:14;7.10;;;4.38;;
56752;SDS011;42627;42.646;23.642;2022-07-06T01:24:15;8.75;;;5.00;;
56752;SDS011;42627;42.646;23.642;2022-07-06T01:26:16;9.52;;;4.43;;
56752;SDS011;42627;42.646;23.642;2022-07-06T01:28:19;10.38;;;5.22;;
56752;SDS011;42627;42.646;23.642;2022-07-06T01:30:25;8.50;;;4.32;;
56752;SDS011;42627;42.646;23.642;2022-07-06T01:32:26;11.02;;;4.70;;
56752;SDS011;42627;42.646;23.642;2022-07-06T01:34:27;10.00;;;4.88;;
56752;SDS011;42627;42.646;23.642;2022-07-06T01:36:28;10.75;;;5.25;;
56752;SDS011;42627;42.646;23.642;2022-07-06T01:38:28;10.07;;;5.13;;
56752;SDS011;42627;42.646;23.642;2022-07-06T01:45:43;9.50;;;4.72;;
56752;SDS011;42627;42.646;23.642;2022-07-06T01:47:44;8.82;;;4.88;;
56752;SDS011;42627;42.646;23.642;2022-07-06T01:49:45;9.75;;;5.20;;
56752;SDS011;42627;42.646;23.642;2022-07-06T01:51:45;9.95;;;5.32;;
56752;SDS011;42627;42.646;23.642;2022-07-06T01:53:46;10.20;;;5.50;;
56752;SDS011;42627;42.646;23.642;2022-07-06T01:55:48;9.65;;;5.25;;
56752;SDS011;42627;42.646;23.642;2022-07-06T01:57:49;9.50;;;5.28;;
56752;SDS011;42627;42.646;23.642;2022-07-06T01:59:54;14.40;;;5.35;;
56752;SDS011;42627;42.646;23.642;2022-07-06T02:01:55;8.82;;;4.53;;
56752;SDS011;42627;42.646;23.642;2022-07-06T02:03:56;11.95;;;5.25;;
56752;SDS011;42627;42.646;23.642;2022-07-06T02:05:56;10.48;;;5.20;;
56752;SDS011;42627;42.646;23.642;2022-07-06T02:07:57;11.25;;;5.65;;
56752;SDS011;42627;42.646;23.642;2022-07-06T02:14:46;11.18;;;5.43;;
56752;SDS011;42627;42.646;23.642;2022-07-06T02:16:47;11.60;;;5.57;;
56752;SDS011;42627;42.646;23.642;2022-07-06T02:18:48;10.27;;;5.85;;
56752;SDS011;42627;42.646;23.642;2022-07-06T02:20:48;14.65;;;6.18;;
56752;SDS011;42627;42.646;23.642;2022-07-06T02:22:49;9.82;;;5.38;;
56752;SDS011;42627;42.646;23.642;2022-07-06T02:24:50;11.32;;;6.00;;
56752;SDS011;42627;42.646;23.642;2022-07-06T02:26:50;11.57;;;5.95;;
56752;SDS011;42627;42.646;23.642;2022-07-06T02:28:51;12.00;;;6.38;;
56752;SDS011;42627;42.646;23.642;2022-07-06T02:30:52;9.93;;;5.50;;
56752;SDS011;42627;42.646;23.642;2022-07-06T02:32:53;11.60;;;6.05;;
56752;SDS011;42627;42.646;23.642;2022-07-06T02:34:53;12.75;;;6.00;;
56752;SDS011;42627;42.646;23.642;2022-07-06T02:36:54;12.48;;;6.40;;
56752;SDS011;42627;42.646;23.642;2022-07-06T02:43:53;11.23;;;6.05;;
56752;SDS011;42627;42.646;23.642;2022-07-06T02:45:53;10.60;;;5.63;;
56752;SDS011;42627;42.646;23.642;2022-07-06T02:47:54;11.20;;;5.80;;
56752;SDS011;42627;42.646;23.642;2022-07-06T02:49:56;9.95;;;5.47;;
56752;SDS011;42627;42.646;23.642;2022-07-06T02:51:56;10.85;;;5.25;;
56752;SDS011;42627;42.646;23.642;2022-07-06T02:53:57;10.55;;;5.63;;
56752;SDS011;42627;42.646;23.642;2022-07-06T02:55:57;12.95;;;6.10;;
56752;SDS011;42627;42.646;23.642;2022-07-06T03:00:09;11.88;;;5.88;;
56752;SDS011;42627;42.646;23.642;2022-07-06T03:02:10;10.02;;;5.30;;
56752;SDS011;42627;42.646;23.642;2022-07-06T03:04:10;12.13;;;5.43;;
56752;SDS011;42627;42.646;23.642;2022-07-06T03:06:11;12.45;;;6.45;;
56752;SDS011;42627;42.646;23.642;2022-07-06T03:08:27;9.35;;;5.47;;
56752;SDS011;42627;42.646;23.642;2022-07-06T03:12:55;13.38;;;6.70;;
56752;SDS011;42627;42.646;23.642;2022-07-06T03:14:56;11.60;;;6.10;;
56752;SDS011;42627;42.646;23.642;2022-07-06T03:16:56;11.55;;;5.63;;
56752;SDS011;42627;42.646;23.642;2022-07-06T03:18:57;11.02;;;5.80;;
56752;SDS011;42627;42.646;23.642;2022-07-06T03:20:58;12.13;;;5.07;;
56752;SDS011;42627;42.646;23.642;2022-07-06T03:22:58;11.35;;;5.68;;
56752;SDS011;42627;42.646;23.642;2022-07-06T03:24:59;9.80;;;6.07;;
56752;SDS011;42627;42.646;23.642;2022-07-06T03:27:03;12.85;;;6.30;;
56752;SDS011;42627;42.646;23.642;2022-07-06T03:29:03;10.23;;;5.40;;
56752;SDS011;42627;42.646;23.642;2022-07-06T03:31:04;10.13;;;5.38;;
56752;SDS011;42627;42.646;23.642;2022-07-06T03:33:05;11.50;;;6.10;;
56752;SDS011;42627;42.646;23.642;2022-07-06T03:35:05;12.73;;;6.15;;
56752;SDS011;42627;42.646;23.642;2022-07-06T03:37:06;11.40;;;5.88;;
56752;SDS011;42627;42.646;23.642;2022-07-06T03:39:10;13.80;;;6.18;;
56752;SDS011;42627;42.646;23.642;2022-07-06T03:41:11;12.93;;;5.63;;
56752;SDS011;42627;42.646;23.642;2022-07-06T03:43:18;9.57;;;5.53;;
56752;SDS011;42627;42.646;23.642;2022-07-06T03:45:18;12.63;;;6.43;;
56752;SDS011;42627;42.646;23.642;2022-07-06T03:47:19;11.35;;;6.45;;
56752;SDS011;42627;42.646;23.642;2022-07-06T03:49:20;9.70;;;5.40;;
56752;SDS011;42627;42.646;23.642;2022-07-06T03:51:21;13.63;;;6.60;;
56752;SDS011;42627;42.646;23.642;2022-07-06T03:53:22;14.50;;;6.60;;
56752;SDS011;42627;42.646;23.642;2022-07-06T03:55:22;12.10;;;5.72;;
56752;SDS011;42627;42.646;23.642;2022-07-06T03:57:38;12.45;;;6.95;;
56752;SDS011;42627;42.646;23.642;2022-07-06T03:59:40;10.55;;;5.78;;
56752;SDS011;42627;42.646;23.642;2022-07-06T04:01:41;11.52;;;6.20;;
56752;SDS011;42627;42.646;23.642;2022-07-06T04:03:42;10.95;;;5.72;;
56752;SDS011;42627;42.646;23.642;2022-07-06T04:05:42;13.57;;;6.57;;
56752;SDS011;42627;42.646;23.642;2022-07-06T04:07:58;12.32;;;6.30;;
56752;SDS011;42627;42.646;23.642;2022-07-06T04:12:26;12.25;;;5.57;;
56752;SDS011;42627;42.646;23.642;2022-07-06T04:14:27;11.80;;;5.85;;
56752;SDS011;42627;42.646;23.642;2022-07-06T04:16:27;10.35;;;5.60;;
56752;SDS011;42627;42.646;23.642;2022-07-06T04:18:28;12.55;;;6.07;;
56752;SDS011;42627;42.646;23.642;2022-07-06T04:20:29;12.80;;;6.15;;
56752;SDS011;42627;42.646;23.642;2022-07-06T04:22:29;11.82;;;6.55;;
56752;SDS011;42627;42.646;23.642;2022-07-06T04:24:30;12.57;;;6.75;;
56752;SDS011;42627;42.646;23.642;2022-07-06T04:26:40;13.05;;;6.22;;
56752;SDS011;42627;42.646;23.642;2022-07-06T04:28:40;14.20;;;7.03;;
56752;SDS011;42627;42.646;23.642;2022-07-06T04:30:41;11.35;;;6.18;;
56752;SDS011;42627;42.646;23.642;2022-07-06T04:32:42;15.15;;;7.25;;
56752;SDS011;42627;42.646;23.642;2022-07-06T04:34:42;12.38;;;6.90;;
56752;SDS011;42627;42.646;23.642;2022-07-06T04:37:01;13.40;;;6.25;;
56752;SDS011;42627;42.646;23.642;2022-07-06T04:41:44;12.52;;;6.28;;
56752;SDS011;42627;42.646;23.642;2022-07-06T04:43:44;11.75;;;6.95;;
56752;SDS011;42627;42.646;23.642;2022-07-06T04:45:45;11.05;;;6.03;;
56752;SDS011;42627;42.646;23.642;2022-07-06T04:47:46;12.77;;;6.85;;
56752;SDS011;42627;42.646;23.642;2022-07-06T04:49:46;11.13;;;5.95;;
56752;SDS011;42627;42.646;23.642;2022-07-06T04:51:47;12.60;;;6.22;;
56752;SDS011;42627;42.646;23.642;2022-07-06T04:53:48;12.85;;;6.47;;
56752;SDS011;42627;42.646;23.642;2022-07-06T04:55:48;12.50;;;6.72;;
56752;SDS011;42627;42.646;23.642;2022-07-06T04:57:58;12.82;;;7.32;;
56752;SDS011;42627;42.646;23.642;2022-07-06T04:59:59;13.35;;;6.75;;
56752;SDS011;42627;42.646;23.642;2022-07-06T05:01:59;13.85;;;6.70;;
56752;SDS011;42627;42.646;23.642;2022-07-06T05:04:00;11.48;;;6.22;;
56752;SDS011;42627;42.646;23.642;2022-07-06T05:06:01;13.77;;;7.10;;
56752;SDS011;42627;42.646;23.642;2022-07-06T05:08:20;14.43;;;7.40;;
56752;SDS011;42627;42.646;23.642;2022-07-06T05:10:33;12.98;;;7.22;;
56752;SDS011;42627;42.646;23.642;2022-07-06T05:12:37;14.43;;;6.38;;
56752;SDS011;42627;42.646;23.642;2022-07-06T05:14:38;14.75;;;6.50;;
56752;SDS011;42627;42.646;23.642;2022-07-06T05:16:39;12.38;;;6.45;;
56752;SDS011;42627;42.646;23.642;2022-07-06T05:18:39;18.55;;;6.50;;
56752;SDS011;42627;42.646;23.642;2022-07-06T05:20:40;11.88;;;6.25;;
56752;SDS011;42627;42.646;23.642;2022-07-06T05:22:41;11.55;;;6.20;;
56752;SDS011;42627;42.646;23.642;2022-07-06T05:24:41;12.05;;;6.40;;
56752;SDS011;42627;42.646;23.642;2022-07-06T05:26:43;11.10;;;6.63;;
56752;SDS011;42627;42.646;23.642;2022-07-06T05:28:44;13.48;;;6.40;;
56752;SDS011;42627;42.646;23.642;2022-07-06T05:30:44;12.40;;;6.78;;
56752;SDS011;42627;42.646;23.642;2022-07-06T05:32:45;13.65;;;6.43;;
56752;SDS011;42627;42.646;23.642;2022-07-06T05:34:46;12.57;;;7.00;;
56752;SDS011;42627;42.646;23.642;2022-07-06T05:36:46;11.77;;;6.40;;
56752;SDS011;42627;42.646;23.642;2022-07-06T05:38:50;14.18;;;6.35;;
56752;SDS011;42627;42.646;23.642;2022-07-06T05:41:12;11.63;;;6.25;;
56752;SDS011;42627;42.646;23.642;2022-07-06T05:43:13;12.55;;;6.50;;
56752;SDS011;42627;42.646;23.642;2022-07-06T05:45:14;12.65;;;6.38;;
56752;SDS011;42627;42.646;23.642;2022-07-06T05:47:14;13.40;;;7.03;;
56752;SDS011;42627;42.646;23.642;2022-07-06T05:49:33;11.82;;;6.03;;
56752;SDS011;42627;42.646;23.642;2022-07-06T05:51:57;11.68;;;5.82;;
56752;SDS011;42627;42.646;23.642;2022-07-06T05:53:57;14.93;;;6.15;;
56752;SDS011;42627;42.646;23.642;2022-07-06T05:58:09;11.82;;;6.10;;
56752;SDS011;42627;42.646;23.642;2022-07-06T06:00:09;10.85;;;6.18;;
56752;SDS011;42627;42.646;23.642;2022-07-06T06:02:10;14.20;;;7.28;;
56752;SDS011;42627;42.646;23.642;2022-07-06T06:04:11;11.73;;;6.30;;
56752;SDS011;42627;42.646;23.642;2022-07-06T06:06:11;9.70;;;5.10;;
56752;SDS011;42627;42.646;23.642;2022-07-06T06:08:12;14.35;;;6.60;;
56752;SDS011;42627;42.646;23.642;2022-07-06T06:10:13;9.98;;;4.93;;
56752;SDS011;42627;42.646;23.642;2022-07-06T06:14:55;9.95;;;5.40;;
56752;SDS011;42627;42.646;23.642;2022-07-06T06:16:58;12.05;;;5.57;;
56752;SDS011;42627;42.646;23.642;2022-07-06T06:18:59;11.38;;;5.43;;
56752;SDS011;42627;42.646;23.642;2022-07-06T06:21:00;9.90;;;5.55;;
56752;SDS011;42627;42.646;23.642;2022-07-06T06:23:00;13.38;;;6.22;;
56752;SDS011;42627;42.646;23.642;2022-07-06T06:25:03;16.40;;;4.95;;
56752;SDS011;42627;42.646;23.642;2022-07-06T06:27:04;11.15;;;6.00;;
56752;SDS011;42627;42.646;23.642;2022-07-06T06:29:05;12.65;;;5.38;;
56752;SDS011;42627;42.646;23.642;2022-07-06T06:31:08;10.60;;;5.43;;
56752;SDS011;42627;42.646;23.642;2022-07-06T06:33:10;11.00;;;5.57;;
56752;SDS011;42627;42.646;23.642;2022-07-06T06:35:12;9.32;;;4.82;;
56752;SDS011;42627;42.646;23.642;2022-07-06T06:37:12;12.27;;;5.30;;
56752;SDS011;42627;42.646;23.642;2022-07-06T06:39:14;11.50;;;5.53;;
56752;SDS011;42627;42.646;23.642;2022-07-06T06:41:24;11.70;;;4.75;;
56752;SDS011;42627;42.646;23.642;2022-07-06T06:43:37;9.93;;;5.47;;
56752;SDS011;42627;42.646;23.642;2022-07-06T06:45:50;9.77;;;4.53;;
56752;SDS011;42627;42.646;23.642;2022-07-06T06:47:51;12.82;;;5.85;;
56752;SDS011;42627;42.646;23.642;2022-07-06T06:49:51;11.75;;;6.22;;
56752;SDS011;42627;42.646;23.642;2022-07-06T06:51:52;12.95;;;5.75;;
56752;SDS011;42627;42.646;23.642;2022-07-06T06:53:52;13.45;;;7.18;;
56752;SDS011;42627;42.646;23.642;2022-07-06T06:55:53;12.80;;;6.80;;
56752;SDS011;42627;42.646;23.642;2022-07-06T06:57:54;14.38;;;6.72;;
56752;SDS011;42627;42.646;23.642;2022-07-06T06:59:55;11.57;;;6.22;;
56752;SDS011;42627;42.646;23.642;2022-07-06T07:02:02;10.15;;;5.55;;
56752;SDS011;42627;42.646;23.642;2022-07-06T07:04:03;10.27;;;5.30;;
56752;SDS011;42627;42.646;23.642;2022-07-06T07:06:06;12.70;;;6.30;;
56752;SDS011;42627;42.646;23.642;2022-07-06T07:08:06;10.52;;;6.03;;
56752;SDS011;42627;42.646;23.642;2022-07-06T07:10:07;11.43;;;6.03;;
56752;SDS011;42627;42.646;23.642;2022-07-06T07:12:23;12.52;;;6.53;;
56752;SDS011;42627;42.646;23.642;2022-07-06T07:14:39;10.20;;;5.28;;
56752;SDS011;42627;42.646;23.642;2022-07-06T07:16:45;11.52;;;5.65;;
56752;SDS011;42627;42.646;23.642;2022-07-06T07:18:45;12.75;;;5.75;;
56752;SDS011;42627;42.646;23.642;2022-07-06T07:20:46;11.02;;;6.00;;
56752;SDS011;42627;42.646;23.642;2022-07-06T07:22:46;14.57;;;5.28;;
56752;SDS011;42627;42.646;23.642;2022-07-06T07:24:47;10.77;;;5.75;;
56752;SDS011;42627;42.646;23.642;2022-07-06T07:26:48;13.20;;;6.32;;
56752;SDS011;42627;42.646;23.642;2022-07-06T07:28:48;12.63;;;6.18;;
56752;SDS011;42627;42.646;23.642;2022-07-06T07:30:54;10.88;;;5.72;;
56752;SDS011;42627;42.646;23.642;2022-07-06T07:32:55;9.82;;;4.90;;
56752;SDS011;42627;42.646;23.642;2022-07-06T07:34:56;11.23;;;6.00;;
56752;SDS011;42627;42.646;23.642;2022-07-06T07:36:57;12.75;;;5.07;;
56752;SDS011;42627;42.646;23.642;2022-07-06T07:38:57;11.15;;;5.93;;
56752;SDS011;42627;42.646;23.642;2022-07-06T07:48:57;10.93;;;6.20;;
56752;SDS011;42627;42.646;23.642;2022-07-06T07:50:58;9.82;;;5.18;;
56752;SDS011;42627;42.646;23.642;2022-07-06T07:52:59;8.98;;;5.05;;
56752;SDS011;42627;42.646;23.642;2022-07-06T07:54:59;11.82;;;5.03;;
56752;SDS011;42627;42.646;23.642;2022-07-06T07:57:00;12.25;;;5.47;;
56752;SDS011;42627;42.646;23.642;2022-07-06T07:59:00;11.63;;;6.75;;
56752;SDS011;42627;42.646;23.642;2022-07-06T08:01:06;14.18;;;6.65;;
56752;SDS011;42627;42.646;23.642;2022-07-06T08:03:07;10.65;;;5.13;;
56752;SDS011;42627;42.646;23.642;2022-07-06T08:05:07;9.27;;;4.72;;
56752;SDS011;42627;42.646;23.642;2022-07-06T08:07:08;9.00;;;4.28;;
56752;SDS011;42627;42.646;23.642;2022-07-06T08:09:09;8.75;;;4.40;;
56752;SDS011;42627;42.646;23.642;2022-07-06T08:11:21;9.43;;;4.75;;
56752;SDS011;42627;42.646;23.642;2022-07-06T08:13:34;7.35;;;4.03;;
56752;SDS011;42627;42.646;23.642;2022-07-06T08:15:41;7.75;;;4.30;;
56752;SDS011;42627;42.646;23.642;2022-07-06T08:17:42;9.25;;;4.65;;
56752;SDS011;42627;42.646;23.642;2022-07-06T08:19:43;9.80;;;4.47;;
56752;SDS011;42627;42.646;23.642;2022-07-06T08:21:43;9.95;;;4.75;;
56752;SDS011;42627;42.646;23.642;2022-07-06T08:23:44;8.40;;;4.78;;
56752;SDS011;42627;42.646;23.642;2022-07-06T08:25:45;8.40;;;4.47;;
56752;SDS011;42627;42.646;23.642;2022-07-06T08:27:45;7.07;;;4.25;;
56752;SDS011;42627;42.646;23.642;2022-07-06T08:29:46;8.55;;;4.25;;
56752;SDS011;42627;42.646;23.642;2022-07-06T08:31:47;10.07;;;4.72;;
56752;SDS011;42627;42.646;23.642;2022-07-06T08:33:47;9.40;;;5.68;;
56752;SDS011;42627;42.646;23.642;2022-07-06T08:35:48;10.75;;;6.18;;
56752;SDS011;42627;42.646;23.642;2022-07-06T08:37:49;9.80;;;5.07;;
56752;SDS011;42627;42.646;23.642;2022-07-06T08:39:50;9.65;;;5.35;;
56752;SDS011;42627;42.646;23.642;2022-07-06T08:41:50;10.23;;;5.72;;
56752;SDS011;42627;42.646;23.642;2022-07-06T08:43:52;9.65;;;5.57;;
56752;SDS011;42627;42.646;23.642;2022-07-06T08:45:57;9.43;;;5.05;;
56752;SDS011;42627;42.646;23.642;2022-07-06T08:48:03;9.65;;;5.50;;
56752;SDS011;42627;42.646;23.642;2022-07-06T08:50:05;7.53;;;4.90;;
56752;SDS011;42627;42.646;23.642;2022-07-06T08:52:06;9.23;;;5.15;;
56752;SDS011;42627;42.646;23.642;2022-07-06T08:54:08;9.00;;;4.95;;
56752;SDS011;42627;42.646;23.642;2022-07-06T08:56:29;10.57;;;6.03;;
56752;SDS011;42627;42.646;23.642;2022-07-06T08:58:39;8.10;;;5.07;;
56752;SDS011;42627;42.646;23.642;2022-07-06T09:00:44;8.52;;;4.57;;
56752;SDS011;42627;42.646;23.642;2022-07-06T09:02:45;8.93;;;5.10;;
56752;SDS011;42627;42.646;23.642;2022-07-06T09:04:46;10.32;;;4.97;;
56752;SDS011;42627;42.646;23.642;2022-07-06T09:06:48;8.77;;;5.15;;
56752;SDS011;42627;42.646;23.642;2022-07-06T09:08:51;7.22;;;4.50;;
56752;SDS011;42627;42.646;23.642;2022-07-06T09:10:54;8.73;;;4.55;;
56752;SDS011;42627;42.646;23.642;2022-07-06T09:13:01;8.82;;;4.57;;
56752;SDS011;42627;42.646;23.642;2022-07-06T09:15:03;7.97;;;4.40;;
56752;SDS011;42627;42.646;23.642;2022-07-06T09:17:05;11.60;;;4.45;;
56752;SDS011;42627;42.646;23.642;2022-07-06T09:19:07;10.23;;;5.25;;
56752;SDS011;42627;42.646;23.642;2022-07-06T09:21:08;9.20;;;5.03;;
56752;SDS011;42627;42.646;23.642;2022-07-06T09:23:09;9.43;;;4.60;;
56752;SDS011;42627;42.646;23.642;2022-07-06T09:25:11;8.30;;;5.20;;
56752;SDS011;42627;42.646;23.642;2022-07-06T09:27:17;10.32;;;4.90;;
56752;SDS011;42627;42.646;23.642;2022-07-06T09:29:18;10.98;;;5.95;;
56752;SDS011;42627;42.646;23.642;2022-07-06T09:36:08;9.85;;;5.47;;
56752;SDS011;42627;42.646;23.642;2022-07-06T09:38:09;10.50;;;5.25;;
56752;SDS011;42627;42.646;23.642;2022-07-06T09:40:17;8.35;;;4.88;;
56752;SDS011;42627;42.646;23.642;2022-07-06T09:42:21;8.15;;;4.72;;
56752;SDS011;42627;42.646;23.642;2022-07-06T09:44:30;8.82;;;5.53;;
56752;SDS011;42627;42.646;23.642;2022-07-06T09:46:41;9.13;;;5.40;;
56752;SDS011;42627;42.646;23.642;2022-07-06T09:48:43;11.13;;;5.40;;
56752;SDS011;42627;42.646;23.642;2022-07-06T09:50:46;8.95;;;5.28;;
56752;SDS011;42627;42.646;23.642;2022-07-06T09:52:54;8.43;;;4.68;;
56752;SDS011;42627;42.646;23.642;2022-07-06T09:54:55;9.65;;;4.88;;
56752;SDS011;42627;42.646;23.642;2022-07-06T09:56:57;9.20;;;4.32;;
56752;SDS011;42627;42.646;23.642;2022-07-06T09:58:58;7.00;;;4.38;;
56752;SDS011;42627;42.646;23.642;2022-07-06T10:01:00;9.50;;;5.13;;
56752;SDS011;42627;42.646;23.642;2022-07-06T10:03:01;9.00;;;5.43;;
56752;SDS011;42627;42.646;23.642;2022-07-06T10:05:02;9.52;;;6.00;;
56752;SDS011;42627;42.646;23.642;2022-07-06T10:07:04;11.35;;;5.53;;
56752;SDS011;42627;42.646;23.642;2022-07-06T10:09:07;9.48;;;5.55;;
56752;SDS011;42627;42.646;23.642;2022-07-06T10:11:25;7.32;;;4.57;;
56752;SDS011;42627;42.646;23.642;2022-07-06T10:13:36;8.15;;;5.07;;
56752;SDS011;42627;42.646;23.642;2022-07-06T10:15:39;9.80;;;5.30;;
56752;SDS011;42627;42.646;23.642;2022-07-06T10:17:40;10.40;;;5.95;;
56752;SDS011;42627;42.646;23.642;2022-07-06T10:19:41;10.63;;;5.50;;
56752;SDS011;42627;42.646;23.642;2022-07-06T10:21:43;9.68;;;4.85;;
56752;SDS011;42627;42.646;23.642;2022-07-06T10:23:44;14.02;;;4.72;;
56752;SDS011;42627;42.646;23.642;2022-07-06T10:25:45;9.00;;;5.20;;
56752;SDS011;42627;42.646;23.642;2022-07-06T10:27:48;11.18;;;5.63;;
56752;SDS011;42627;42.646;23.642;2022-07-06T10:29:54;9.90;;;5.22;;
56752;SDS011;42627;42.646;23.642;2022-07-06T10:31:56;10.98;;;5.28;;
56752;SDS011;42627;42.646;23.642;2022-07-06T10:33:58;9.82;;;5.60;;
56752;SDS011;42627;42.646;23.642;2022-07-06T10:36:05;11.82;;;5.78;;
56752;SDS011;42627;42.646;23.642;2022-07-06T10:38:06;10.52;;;5.78;;
56752;SDS011;42627;42.646;23.642;2022-07-06T10:40:31;10.40;;;5.63;;
56752;SDS011;42627;42.646;23.642;2022-07-06T10:43:18;9.45;;;5.22;;
56752;SDS011;42627;42.646;23.642;2022-07-06T10:45:20;10.77;;;5.88;;
56752;SDS011;42627;42.646;23.642;2022-07-06T10:47:27;8.82;;;5.18;;
56752;SDS011;42627;42.646;23.642;2022-07-06T10:49:28;11.38;;;6.32;;
56752;SDS011;42627;42.646;23.642;2022-07-06T10:51:29;10.05;;;5.50;;
56752;SDS011;42627;42.646;23.642;2022-07-06T10:55:36;10.00;;;5.95;;
56752;SDS011;42627;42.646;23.642;2022-07-06T10:57:51;11.45;;;6.38;;
56752;SDS011;42627;42.646;23.642;2022-07-06T11:00:02;8.90;;;5.80;;
56752;SDS011;42627;42.646;23.642;2022-07-06T11:02:11;10.27;;;5.60;;
56752;SDS011;42627;42.646;23.642;2022-07-06T11:04:16;11.27;;;6.05;;
56752;SDS011;42627;42.646;23.642;2022-07-06T11:06:20;10.05;;;5.78;;
56752;SDS011;42627;42.646;23.642;2022-07-06T11:08:23;10.57;;;5.35;;
56752;SDS011;42627;42.646;23.642;2022-07-06T11:10:47;10.85;;;5.72;;
56752;SDS011;42627;42.646;23.642;2022-07-06T11:12:48;10.32;;;6.40;;
56752;SDS011;42627;42.646;23.642;2022-07-06T11:17:10;11.90;;;6.10;;
56752;SDS011;42627;42.646;23.642;2022-07-06T11:19:15;10.95;;;5.82;;
56752;SDS011;42627;42.646;23.642;2022-07-06T11:21:17;9.73;;;5.00;;
56752;SDS011;42627;42.646;23.642;2022-07-06T11:23:22;10.60;;;5.60;;
56752;SDS011;42627;42.646;23.642;2022-07-06T11:25:24;11.65;;;5.50;;
56752;SDS011;42627;42.646;23.642;2022-07-06T11:27:25;11.43;;;5.97;;
56752;SDS011;42627;42.646;23.642;2022-07-06T11:29:27;10.95;;;5.07;;
56752;SDS011;42627;42.646;23.642;2022-07-06T11:36:11;11.10;;;6.00;;
56752;SDS011;42627;42.646;23.642;2022-07-06T11:38:30;9.88;;;5.40;;
56752;SDS011;42627;42.646;23.642;2022-07-06T11:40:31;12.88;;;5.78;;
56752;SDS011;42627;42.646;23.642;2022-07-06T11:42:37;12.25;;;5.10;;
56752;SDS011;42627;42.646;23.642;2022-07-06T11:44:39;10.00;;;5.10;;
56752;SDS011;42627;42.646;23.642;2022-07-06T11:46:41;9.88;;;5.72;;
56752;SDS011;42627;42.646;23.642;2022-07-06T11:48:45;10.35;;;6.07;;
56752;SDS011;42627;42.646;23.642;2022-07-06T11:51:12;12.05;;;5.82;;
56752;SDS011;42627;42.646;23.642;2022-07-06T11:53:14;11.15;;;5.63;;
56752;SDS011;42627;42.646;23.642;2022-07-06T11:55:15;11.52;;;5.95;;
56752;SDS011;42627;42.646;23.642;2022-07-06T11:57:16;11.10;;;5.63;;
56752;SDS011;42627;42.646;23.642;2022-07-06T11:59:16;11.02;;;5.72;;
56752;SDS011;42627;42.646;23.642;2022-07-06T12:01:24;9.05;;;5.22;;
56752;SDS011;42627;42.646;23.642;2022-07-06T12:03:27;10.43;;;5.53;;
56752;SDS011;42627;42.646;23.642;2022-07-06T12:10:30;9.75;;;5.50;;
56752;SDS011;42627;42.646;23.642;2022-07-06T12:12:37;10.45;;;5.78;;
56752;SDS011;42627;42.646;23.642;2022-07-06T12:14:39;10.88;;;5.38;;
56752;SDS011;42627;42.646;23.642;2022-07-06T12:16:40;9.38;;;5.60;;
56752;SDS011;42627;42.646;23.642;2022-07-06T12:18:42;11.88;;;6.43;;
56752;SDS011;42627;42.646;23.642;2022-07-06T12:20:44;12.13;;;5.93;;
56752;SDS011;42627;42.646;23.642;2022-07-06T12:22:45;13.57;;;6.38;;
56752;SDS011;42627;42.646;23.642;2022-07-06T12:24:46;12.70;;;6.72;;
56752;SDS011;42627;42.646;23.642;2022-07-06T12:26:49;12.52;;;6.80;;
56752;SDS011;42627;42.646;23.642;2022-07-06T12:29:01;13.32;;;7.30;;
56752;SDS011;42627;42.646;23.642;2022-07-06T12:31:04;8.93;;;4.25;;
56752;SDS011;42627;42.646;23.642;2022-07-06T12:33:14;6.55;;;3.35;;
56752;SDS011;42627;42.646;23.642;2022-07-06T12:35:18;5.32;;;3.22;;
56752;SDS011;42627;42.646;23.642;2022-07-06T12:37:23;5.13;;;3.17;;
56752;SDS011;42627;42.646;23.642;2022-07-06T12:39:24;5.65;;;3.42;;
56752;SDS011;42627;42.646;23.642;2022-07-06T12:41:29;7.40;;;3.47;;
56752;SDS011;42627;42.646;23.642;2022-07-06T12:43:40;5.85;;;3.63;;
56752;SDS011;42627;42.646;23.642;2022-07-06T12:45:43;5.07;;;3.03;;
56752;SDS011;42627;42.646;23.642;2022-07-06T12:47:58;4.53;;;2.92;;
56752;SDS011;42627;42.646;23.642;2022-07-06T12:50:04;6.25;;;3.40;;
56752;SDS011;42627;42.646;23.642;2022-07-06T12:54:12;7.68;;;4.10;;
56752;SDS011;42627;42.646;23.642;2022-07-06T12:56:17;6.22;;;3.50;;
56752;SDS011;42627;42.646;23.642;2022-07-06T12:58:18;5.47;;;3.15;;
56752;SDS011;42627;42.646;23.642;2022-07-06T13:00:19;6.30;;;3.47;;
56752;SDS011;42627;42.646;23.642;2022-07-06T13:04:38;8.27;;;4.50;;
56752;SDS011;42627;42.646;23.642;2022-07-06T13:06:39;8.57;;;4.45;;
56752;SDS011;42627;42.646;23.642;2022-07-06T13:10:57;8.60;;;4.35;;
56752;SDS011;42627;42.646;23.642;2022-07-06T13:12:57;6.90;;;3.58;;
56752;SDS011;42627;42.646;23.642;2022-07-06T13:14:58;7.32;;;4.00;;